createdAt,value
2022-09-20T00:02:11.632Z,84.37
2022-09-20T00:05:48.485Z,84.37
2022-09-20T00:09:25.298Z,84.10
2022-09-20T00:13:02.116Z,84.20
2022-09-20T00:16:41.226Z,84.25
2022-09-20T00:20:15.629Z,84.11
2022-09-20T00:23:53.245Z,84.50
2022-09-20T00:27:29.084Z,84.80
2022-09-20T00:31:06.364Z,85.66
2022-09-20T00:35:00.708Z,86.20
2022-09-20T00:38:19.113Z,86.07
2022-09-20T00:41:55.970Z,86.42
2022-09-20T00:45:33.814Z,86.55
2022-09-20T00:49:21.643Z,87.11
2022-09-20T00:52:51.694Z,87.18
2022-09-20T00:56:31.690Z,87.36
2022-09-20T00:59:59.856Z,88.40
2022-09-20T01:03:39.594Z,88.34
2022-09-20T01:07:17.177Z,87.22
2022-09-20T01:10:51.169Z,86.95
2022-09-20T01:14:27.572Z,86.63
2022-09-20T01:18:06.981Z,85.96
2022-09-20T01:21:41.341Z,84.58
2022-09-20T01:25:39.195Z,83.64
2022-09-20T01:29:09.791Z,83.63
2022-09-20T01:33:28.715Z,85.16
2022-09-20T01:36:37.076Z,87.32
2022-09-20T01:40:16.452Z,87.28
2022-09-20T01:47:17.824Z,87.19
2022-09-20T01:51:10.692Z,89.00
2022-09-20T01:55:16.258Z,89.72
2022-09-20T01:59:07.197Z,89.87
2022-09-20T02:02:22.178Z,90.35
2022-09-20T02:06:13.705Z,90.01
2022-09-20T02:10:04.265Z,90.32
2022-09-20T02:13:15.692Z,90.30
2022-09-20T02:16:50.106Z,90.29
2022-09-20T02:20:33.721Z,90.29
2022-09-20T02:24:15.446Z,90.36
2022-09-20T02:28:16.460Z,90.36
2022-09-20T02:31:28.905Z,90.64
2022-09-20T02:35:05.798Z,90.41
2022-09-20T02:39:01.756Z,90.23
2022-09-20T02:42:17.449Z,90.53
2022-09-20T02:49:38.377Z,90.94
2022-09-20T02:53:21.275Z,91.06
2022-09-20T02:56:56.396Z,91.26
2022-09-20T03:00:14.973Z,91.19
2022-09-20T03:04:14.166Z,91.27
2022-09-20T03:07:43.550Z,91.20
2022-09-20T03:12:15.274Z,91.20
2022-09-20T03:15:48.201Z,91.12
2022-09-20T03:23:35.109Z,90.71
2022-09-20T03:27:07.577Z,90.80
2022-09-20T03:30:50.824Z,90.55
2022-09-20T03:34:41.104Z,90.84
2022-09-20T03:38:36.871Z,91.02
2022-09-20T03:42:02.432Z,90.94
2022-09-20T03:45:34.071Z,91.33
2022-09-20T03:49:04.872Z,91.46
2022-09-20T03:52:40.087Z,91.27
2022-09-20T03:56:24.370Z,90.97
2022-09-20T03:59:59.109Z,89.89
2022-09-20T04:03:29.302Z,88.57
2022-09-20T04:07:21.629Z,87.59
2022-09-20T04:10:57.735Z,87.03
2022-09-20T04:14:48.954Z,87.68
2022-09-20T04:18:28.738Z,88.54
2022-09-20T04:21:56.294Z,87.21
2022-09-20T04:25:24.092Z,87.02
2022-09-20T04:29:03.342Z,87.25
2022-09-20T04:33:08.550Z,87.22
2022-09-20T04:36:54.862Z,87.20
2022-09-20T04:40:45.842Z,86.72
2022-09-20T04:44:29.931Z,86.35
2022-09-20T04:47:42.789Z,86.28
2022-09-20T04:51:38.388Z,86.62
2022-09-20T04:55:16.139Z,86.84
2022-09-20T04:58:42.407Z,86.88
2022-09-20T05:02:10.056Z,87.22
2022-09-20T05:06:24.624Z,87.66
2022-09-20T05:09:30.037Z,87.68
2022-09-20T05:13:16.965Z,87.61
2022-09-20T05:17:08.263Z,86.44
2022-09-20T05:20:34.418Z,84.67
2022-09-20T05:24:17.011Z,83.47
2022-09-20T05:27:51.854Z,82.84
2022-09-20T05:31:17.942Z,82.05
2022-09-20T05:35:17.248Z,82.12
2022-09-20T05:38:40.998Z,83.65
2022-09-20T05:42:39.738Z,84.17
2022-09-20T05:45:58.330Z,84.09
2022-09-20T05:49:18.717Z,83.84
2022-09-20T05:52:57.977Z,83.47
2022-09-20T05:57:07.606Z,84.25
2022-09-20T06:00:24.660Z,84.59
2022-09-20T06:04:08.594Z,84.57
2022-09-20T06:08:18.850Z,84.93
2022-09-20T06:11:40.054Z,84.26
2022-09-20T06:15:21.915Z,84.36
2022-09-20T06:18:34.652Z,84.26
2022-09-20T06:22:31.473Z,84.16
2022-09-20T06:25:51.491Z,84.78
2022-09-20T06:29:31.404Z,84.27
2022-09-20T06:33:20.834Z,83.91
2022-09-20T06:36:58.543Z,84.47
2022-09-20T06:40:56.348Z,83.54
2022-09-20T06:44:00.977Z,81.65
2022-09-20T06:47:36.857Z,80.66
2022-09-20T06:51:09.977Z,81.12
2022-09-20T06:54:53.938Z,80.59
2022-09-20T06:58:23.288Z,78.93
2022-09-20T07:02:00.735Z,78.49
2022-09-20T07:05:36.735Z,77.84
2022-09-20T07:09:14.067Z,77.10
2022-09-20T07:12:50.432Z,76.67
2022-09-20T07:16:27.552Z,76.70
2022-09-20T07:20:04.287Z,77.44
2022-09-20T07:23:40.883Z,77.24
2022-09-20T07:27:17.753Z,75.83
2022-09-20T07:30:54.551Z,73.54
2022-09-20T07:34:30.968Z,72.46
2022-09-20T07:38:08.839Z,72.15
2022-09-20T07:41:48.691Z,71.38
2022-09-20T07:45:21.764Z,71.12
2022-09-20T07:48:58.106Z,70.96
2022-09-20T07:52:35.141Z,71.78
2022-09-20T07:56:15.199Z,72.92
2022-09-20T07:59:48.840Z,73.60
2022-09-20T08:03:26.740Z,74.10
2022-09-20T08:07:02.444Z,74.93
2022-09-20T08:10:41.432Z,74.30
2022-09-20T08:14:18.012Z,72.77
2022-09-20T08:17:52.978Z,72.53
2022-09-20T08:21:33.521Z,73.00
2022-09-20T08:25:07.264Z,73.48
2022-09-20T08:28:44.537Z,73.25
2022-09-20T08:32:20.553Z,72.70
2022-09-20T08:35:57.646Z,74.26
2022-09-20T08:40:04.206Z,73.68
2022-09-20T08:43:12.191Z,73.71
2022-09-20T08:46:50.252Z,74.12
2022-09-20T08:50:24.781Z,75.44
2022-09-20T08:54:01.616Z,76.43
2022-09-20T08:57:37.795Z,77.09
2022-09-20T09:01:26.548Z,77.90
2022-09-20T09:04:53.078Z,77.99
2022-09-20T09:08:38.955Z,77.75
2022-09-20T09:12:05.570Z,76.34
2022-09-20T09:15:43.861Z,75.50
2022-09-20T09:19:34.544Z,75.66
2022-09-20T09:23:11.630Z,75.22
2022-09-20T09:26:40.919Z,74.53
2022-09-20T09:30:21.387Z,73.97
2022-09-20T09:33:46.287Z,74.51
2022-09-20T09:37:31.270Z,74.42
2022-09-20T09:41:05.585Z,74.58
2022-09-20T09:44:35.707Z,75.17
2022-09-20T09:48:28.351Z,75.48
2022-09-20T09:52:24.839Z,75.44
2022-09-20T09:56:23.881Z,76.12
2022-09-20T10:00:01.304Z,74.79
2022-09-20T10:03:32.886Z,74.07
2022-09-20T10:06:52.469Z,73.16
2022-09-20T10:10:45.994Z,70.80
2022-09-20T10:14:05.620Z,70.39
2022-09-20T10:17:43.709Z,69.28
2022-09-20T10:21:45.677Z,68.57
2022-09-20T10:25:32.298Z,67.45
2022-09-20T10:28:58.638Z,66.38
2022-09-20T10:32:37.534Z,66.59
2022-09-20T10:36:09.092Z,65.93
2022-09-20T10:39:27.361Z,65.81
2022-09-20T10:43:15.828Z,66.05
2022-09-20T10:46:51.965Z,65.51
2022-09-20T10:51:03.850Z,64.48
2022-09-20T10:54:33.652Z,63.71
2022-09-20T11:05:12.988Z,67.59
2022-09-20T11:08:49.332Z,67.76
2022-09-20T11:12:42.829Z,68.24
2022-09-20T11:16:00.491Z,69.24
2022-09-20T11:20:06.194Z,69.82
2022-09-20T11:23:28.121Z,68.65
2022-09-20T11:27:07.190Z,67.53
2022-09-20T11:30:42.078Z,68.47
2022-09-20T11:34:30.041Z,69.41
2022-09-20T11:37:53.031Z,69.48
2022-09-20T11:45:01.944Z,69.60
2022-09-20T11:49:07.958Z,67.49
2022-09-20T11:52:35.258Z,67.20
2022-09-20T11:56:18.014Z,68.09
2022-09-20T11:59:35.964Z,68.62
2022-09-20T12:03:41.158Z,68.68
2022-09-20T12:07:36.497Z,68.81
2022-09-20T12:10:40.201Z,68.57
2022-09-20T12:14:27.124Z,68.40
2022-09-20T12:17:49.892Z,67.70
2022-09-20T12:21:27.562Z,67.43
2022-09-20T12:25:21.741Z,67.78
2022-09-20T12:28:52.445Z,65.02
2022-09-20T12:32:39.848Z,65.74
2022-09-20T12:36:00.010Z,65.95
2022-09-20T12:39:33.077Z,66.31
2022-09-20T12:43:19.638Z,66.69
2022-09-20T12:46:51.824Z,67.52
2022-09-20T12:50:41.671Z,68.67
2022-09-20T12:54:09.504Z,69.06
2022-09-20T12:57:36.143Z,70.67
2022-09-20T13:01:27.719Z,70.64
2022-09-20T13:04:56.014Z,70.71
2022-09-20T13:08:30.420Z,70.65
2022-09-20T13:12:02.805Z,70.72
2022-09-20T13:15:39.744Z,71.51
2022-09-20T13:19:30.703Z,72.30
2022-09-20T13:22:57.127Z,73.02
2022-09-20T13:27:00.334Z,73.57
2022-09-20T13:30:32.969Z,73.15
2022-09-20T13:33:42.724Z,72.68
2022-09-20T13:37:23.821Z,72.17
2022-09-20T13:41:15.793Z,72.18
2022-09-20T13:44:34.753Z,71.95
2022-09-20T13:48:10.365Z,72.65
2022-09-20T13:51:48.695Z,73.66
2022-09-20T13:55:26.413Z,74.32
2022-09-20T13:59:05.454Z,75.30
2022-09-20T14:02:57.544Z,73.95
2022-09-20T14:06:16.181Z,73.86
2022-09-20T14:09:51.778Z,73.25
2022-09-20T14:13:28.471Z,71.69
2022-09-20T14:17:09.218Z,71.67
2022-09-20T14:20:43.922Z,72.05
2022-09-20T14:24:37.414Z,72.32
2022-09-20T14:28:16.226Z,71.62
2022-09-20T14:31:35.063Z,71.57
2022-09-20T14:35:23.046Z,72.38
2022-09-20T14:38:47.532Z,71.67
2022-09-20T14:42:29.236Z,71.80
2022-09-20T14:46:02.253Z,70.90
2022-09-20T14:49:43.058Z,70.68
2022-09-20T14:53:15.133Z,70.91
2022-09-20T14:56:50.612Z,70.63
2022-09-20T15:00:25.719Z,70.31
2022-09-20T15:04:19.139Z,70.35
2022-09-20T15:07:39.493Z,70.84
2022-09-20T15:11:19.119Z,70.77
2022-09-20T15:14:52.996Z,71.25
2022-09-20T15:18:37.340Z,71.66
2022-09-20T15:22:06.633Z,72.08
2022-09-20T15:25:43.316Z,70.74
2022-09-20T15:29:20.037Z,70.51
2022-09-20T15:33:02.220Z,70.62
2022-09-20T15:36:33.641Z,70.07
2022-09-20T15:40:12.065Z,70.54
2022-09-20T15:43:47.411Z,70.84
2022-09-20T15:47:24.107Z,70.72
2022-09-20T15:51:06.993Z,70.81
2022-09-20T15:54:38.353Z,71.24
2022-09-20T15:58:15.094Z,71.50
2022-09-20T16:01:52.027Z,71.35
2022-09-20T16:05:28.284Z,71.54
2022-09-20T16:09:06.512Z,71.97
2022-09-20T16:12:41.598Z,72.28
2022-09-20T16:16:18.454Z,72.40
2022-09-20T16:19:55.150Z,71.95
2022-09-20T16:23:31.740Z,72.26
2022-09-20T16:27:09.943Z,72.59
2022-09-20T16:30:55.785Z,71.73
2022-09-20T16:34:28.516Z,71.93
2022-09-20T16:37:59.041Z,72.37
2022-09-20T16:41:36.099Z,72.98
2022-09-20T16:45:15.956Z,73.88
2022-09-20T16:48:53.856Z,74.34
2022-09-20T16:52:26.619Z,74.74
2022-09-20T16:56:07.992Z,75.51
2022-09-20T16:59:41.138Z,75.93
2022-09-20T17:03:17.100Z,76.40
2022-09-20T17:06:53.665Z,74.81
2022-09-20T17:10:30.704Z,74.70
2022-09-20T17:14:07.870Z,75.71
2022-09-20T17:17:44.018Z,76.58
2022-09-20T17:21:22.343Z,76.56
2022-09-20T17:24:58.203Z,77.07
2022-09-20T17:28:41.834Z,76.80
2022-09-20T17:32:11.142Z,75.44
2022-09-20T17:35:52.250Z,75.90
2022-09-20T17:39:25.049Z,76.46
2022-09-20T17:43:01.233Z,76.65
2022-09-20T17:46:40.766Z,75.80
2022-09-20T17:50:15.604Z,75.09
2022-09-20T17:53:53.764Z,75.49
2022-09-20T17:57:29.550Z,75.73
2022-09-20T18:01:12.854Z,76.06
2022-09-20T18:04:42.963Z,75.27
2022-09-20T18:08:19.191Z,74.83
2022-09-20T18:12:00.403Z,74.86
2022-09-20T18:15:36.743Z,75.05
2022-09-20T18:19:11.869Z,74.79
2022-09-20T18:22:49.033Z,75.09
2022-09-20T18:26:25.970Z,75.98
2022-09-20T18:30:00.248Z,76.15
2022-09-20T18:33:37.012Z,76.29
2022-09-20T18:37:14.951Z,75.50
2022-09-20T18:41:03.563Z,75.30
2022-09-20T18:44:28.616Z,75.39
2022-09-20T18:48:04.391Z,75.49
2022-09-20T18:51:40.756Z,75.31
2022-09-20T18:55:17.585Z,75.40
2022-09-20T18:58:56.710Z,75.80
2022-09-20T19:03:12.075Z,75.97
2022-09-20T19:06:31.159Z,76.16
2022-09-20T19:10:37.982Z,75.57
2022-09-20T19:14:06.943Z,74.82
2022-09-20T19:17:24.732Z,74.70
2022-09-20T19:20:53.567Z,75.26
2022-09-20T19:24:35.372Z,75.12
2022-09-20T19:28:10.716Z,75.25
2022-09-20T19:31:43.516Z,75.28
2022-09-20T19:35:28.644Z,75.05
2022-09-20T19:39:18.461Z,74.84
2022-09-20T19:42:56.792Z,75.01
2022-09-20T19:46:17.318Z,75.88
2022-09-20T19:50:10.334Z,75.73
2022-09-20T19:53:28.296Z,75.70
2022-09-20T19:57:02.158Z,75.40
2022-09-20T20:00:38.092Z,75.63
2022-09-20T20:04:14.683Z,76.25
2022-09-20T20:08:15.119Z,76.35
2022-09-20T20:12:05.846Z,76.10
2022-09-20T20:15:26.443Z,75.25
2022-09-20T20:19:01.903Z,75.59
2022-09-20T20:22:29.622Z,75.36
2022-09-20T20:26:21.099Z,76.94
2022-09-20T20:29:34.386Z,78.13
2022-09-20T20:33:16.504Z,77.70
2022-09-20T20:36:48.496Z,76.87
2022-09-20T20:40:25.014Z,76.83
2022-09-20T20:44:06.095Z,76.81
2022-09-20T20:47:42.963Z,76.83
2022-09-20T20:51:18.406Z,76.48
2022-09-20T20:54:51.819Z,76.02
2022-09-20T20:58:35.591Z,76.47
2022-09-20T21:02:07.955Z,76.76
2022-09-20T21:05:42.139Z,76.88
2022-09-20T21:09:19.060Z,76.79
2022-09-20T21:13:01.652Z,76.57
2022-09-20T21:16:35.852Z,77.45
2022-09-20T21:20:10.294Z,76.64
2022-09-20T21:23:48.325Z,75.91
2022-09-20T21:27:23.011Z,75.78
2022-09-20T21:31:04.287Z,76.15
2022-09-20T21:34:36.640Z,76.83
2022-09-20T21:38:13.519Z,77.19
2022-09-20T21:41:49.932Z,76.66
2022-09-20T21:45:29.723Z,75.96
2022-09-20T21:49:05.908Z,75.76
2022-09-20T21:52:40.709Z,75.58
2022-09-20T21:56:17.709Z,75.61
2022-09-20T21:59:53.996Z,75.76
2022-09-20T22:03:35.532Z,75.90
2022-09-20T22:07:07.263Z,75.30
2022-09-20T22:11:11.161Z,75.47
2022-09-20T22:14:44.628Z,76.14
2022-09-20T22:18:20.411Z,76.18
2022-09-20T22:21:57.391Z,76.06
2022-09-20T22:25:34.742Z,76.09
2022-09-20T22:29:11.581Z,76.53
2022-09-20T22:32:47.852Z,76.64
2022-09-20T22:36:32.580Z,77.23
2022-09-20T22:40:01.414Z,77.03
2022-09-20T22:43:38.579Z,77.43
2022-09-20T22:47:15.291Z,77.58
2022-09-20T22:50:51.692Z,77.36
2022-09-20T22:54:28.632Z,77.23
2022-09-20T22:58:05.396Z,76.96
2022-09-20T23:01:45.063Z,77.14
2022-09-20T23:05:18.912Z,77.44
2022-09-20T23:09:01.389Z,77.47
2022-09-20T23:12:32.541Z,78.23
2022-09-20T23:16:21.452Z,78.61
2022-09-20T23:19:46.480Z,79.28
2022-09-20T23:23:23.710Z,79.42
2022-09-20T23:27:00.066Z,79.12
2022-09-20T23:30:36.326Z,80.03
2022-09-20T23:34:13.916Z,80.52
2022-09-20T23:37:50.013Z,80.58
2022-09-20T23:41:29.240Z,80.64
2022-09-20T23:45:03.500Z,81.08
2022-09-20T23:48:44.445Z,81.54
2022-09-20T23:52:17.034Z,81.27
2022-09-20T23:55:53.913Z,81.13
2022-09-20T23:59:31.125Z,81.02
